Time;durP1;ratioP1;P1;durP2;ratioP2;P2;SDS_P1;SDS_P2;PMS_P1;PMS_P2;Temp;Humidity;BMP_temperature;BMP_pressure;BME280_temperature;BME280_humidity;BME280_pressure;Samples;Min_cycle;Max_cycle;Signal;HPM_P1;HPM_P2
2023/08/09 00:02:01;;;;;;;26.55;4.45;;;;;;;;;;4992228;28;20050;-59
2023/08/09 00:04:34;;;;;;;47.35;5.40;;;;;;;;;;4991024;28;20084;-58
2023/08/09 00:07:08;;;;;;;37.85;4.28;;;;;;;;;;4993167;28;20052;-59
2023/08/09 00:09:36;;;;;;;23.08;4.00;;;;;;;;;;4992947;28;20094;-53
2023/08/09 00:12:03;;;;;;;37.10;4.95;;;;;;;;;;4989892;28;20359;-56
2023/08/09 00:14:38;;;;;;;35.67;4.78;;;;;;;;;;4994016;28;20113;-56
2023/08/09 00:17:05;;;;;;;31.33;4.47;;;;;;;;;;4994736;28;20116;-53
2023/08/09 00:19:39;;;;;;;33.22;4.32;;;;;;;;;;4990323;28;20093;-55
2023/08/09 00:22:08;;;;;;;25.50;4.28;;;;;;;;;;4998124;28;20069;-56
2023/08/09 00:24:35;;;;;;;26.67;4.00;;;;;;;;;;4983152;28;20049;-54
2023/08/09 00:27:09;;;;;;;40.10;4.07;;;;;;;;;;4995005;28;20053;-56
2023/08/09 00:29:36;;;;;;;26.52;4.00;;;;;;;;;;4989329;28;20061;-55
2023/08/09 00:32:11;;;;;;;26.15;3.95;;;;;;;;;;4991739;28;20519;-56
2023/08/09 00:34:38;;;;;;;24.73;3.42;;;;;;;;;;4992743;28;20069;-57
2023/08/09 00:37:05;;;;;;;27.50;4.22;;;;;;;;;;4994929;28;20583;-59
2023/08/09 00:39:39;;;;;;;27.75;4.00;;;;;;;;;;4992105;28;20054;-56
2023/08/09 00:42:06;;;;;;;20.60;3.08;;;;;;;;;;4990587;28;20586;-54
2023/08/09 00:44:33;;;;;;;22.02;3.28;;;;;;;;;;4991096;28;20102;-54
2023/08/09 00:47:07;;;;;;;22.02;3.50;;;;;;;;;;4992689;28;20061;-55
2023/08/09 00:49:35;;;;;;;25.15;3.83;;;;;;;;;;4992773;28;20768;-53
2023/08/09 00:52:15;;;;;;;31.52;4.50;;;;;;;;;;4993770;28;20142;-55
2023/08/09 00:54:49;;;;;;;23.15;3.72;;;;;;;;;;4994240;28;20062;-56
2023/08/09 00:57:23;;;;;;;23.45;4.18;;;;;;;;;;4994492;28;20061;-59
2023/08/09 00:59:50;;;;;;;34.78;3.95;;;;;;;;;;4991699;28;20626;-59
2023/08/09 01:02:17;;;;;;;31.17;4.20;;;;;;;;;;4993765;28;20046;-59
2023/08/09 01:04:52;;;;;;;30.85;4.10;;;;;;;;;;4988790;28;20454;-59
2023/08/09 01:07:25;;;;;;;32.40;3.80;;;;;;;;;;4992982;28;20108;-63
2023/08/09 01:10:05;;;;;;;22.85;4.47;;;;;;;;;;4990651;28;20490;-56
2023/08/09 01:12:38;;;;;;;40.67;4.60;;;;;;;;;;4991532;28;20061;-57
2023/08/09 01:15:13;;;;;;;31.98;4.13;;;;;;;;;;4987278;28;20519;-56
2023/08/09 01:17:41;;;;;;;22.98;3.80;;;;;;;;;;4991207;28;20061;-55
2023/08/09 01:20:12;;;;;;;25.10;3.13;;;;;;;;;;4990504;28;20128;-55
2023/08/09 01:23:03;;;;;;;33.72;3.45;;;;;;;;;;4994638;28;20404;-57
2023/08/09 01:25:36;;;;;;;19.70;3.30;;;;;;;;;;4991851;28;20054;-55
2023/08/09 01:28:04;;;;;;;23.05;3.42;;;;;;;;;;4993923;28;20082;-52
2023/08/09 01:30:38;;;;;;;13.82;2.45;;;;;;;;;;4991718;28;20065;-56
2023/08/09 01:33:05;;;;;;;32.15;3.08;;;;;;;;;;4988423;28;20053;-56
2023/08/09 01:35:35;;;;;;;19.23;3.53;;;;;;;;;;4977447;28;20332;-55
2023/08/09 01:38:12;;;;;;;22.73;3.63;;;;;;;;;;4990072;28;20633;-58
2023/08/09 01:40:40;;;;;;;27.92;3.25;;;;;;;;;;4992348;28;20157;-59
2023/08/09 01:43:14;;;;;;;29.90;3.67;;;;;;;;;;4998627;28;20515;-57
2023/08/09 01:45:41;;;;;;;21.38;3.03;;;;;;;;;;4994067;28;20054;-59
2023/08/09 01:48:08;;;;;;;22.17;3.50;;;;;;;;;;4992318;28;20073;-59
2023/08/09 01:50:44;;;;;;;15.07;2.95;;;;;;;;;;4991954;28;20046;-59
2023/08/09 01:53:18;;;;;;;19.17;3.30;;;;;;;;;;4996409;28;20110;-63
2023/08/09 01:55:53;;;;;;;12.25;2.45;;;;;;;;;;4994225;28;20549;-63
2023/08/09 01:58:27;;;;;;;14.75;2.63;;;;;;;;;;4991615;28;20066;-63
2023/08/09 02:01:01;;;;;;;14.10;2.13;;;;;;;;;;4989101;28;20606;-63
2023/08/09 02:03:28;;;;;;;;;;;;;;;;;;4988534;28;20085;-53
2023/08/09 02:05:56;;;;;;;18.42;2.00;;;;;;;;;;4993938;28;20437;-60
2023/08/09 02:08:30;;;;;;;7.50;1.95;;;;;;;;;;4988502;28;20058;-60
2023/08/09 02:10:57;;;;;;;12.65;2.08;;;;;;;;;;4991457;28;20066;-60
2023/08/09 02:13:31;;;;;;;18.70;2.30;;;;;;;;;;4993794;28;20523;-60
2023/08/09 02:15:58;;;;;;;24.50;2.55;;;;;;;;;;4992821;28;20053;-60
2023/08/09 02:18:25;;;;;;;15.80;2.65;;;;;;;;;;4988047;28;20125;-60
2023/08/09 02:21:02;;;;;;;14.48;2.70;;;;;;;;;;4992834;28;20061;-59
2023/08/09 02:23:29;;;;;;;16.92;2.90;;;;;;;;;;4993678;28;20042;-59
2023/08/09 02:25:56;;;;;;;;;;;;;;;;;;4993312;28;20863;-60
2023/08/09 02:28:31;;;;;;;19.08;2.40;;;;;;;;;;4993669;28;20481;-59
2023/08/09 02:30:59;;;;;;;21.05;3.50;;;;;;;;;;4993264;28;20050;-59
2023/08/09 02:33:27;;;;;;;16.85;2.25;;;;;;;;;;4993988;28;20153;-56
2023/08/09 02:36:04;;;;;;;20.23;2.83;;;;;;;;;;4993903;28;20050;-60
2023/08/09 02:38:32;;;;;;;17.77;2.78;;;;;;;;;;4992616;28;20053;-58
2023/08/09 02:41:04;;;;;;;18.13;3.00;;;;;;;;;;4982528;28;20419;-59
2023/08/09 02:43:38;;;;;;;23.50;2.50;;;;;;;;;;4999692;28;20058;-60
2023/08/09 02:46:05;;;;;;;13.68;2.53;;;;;;;;;;5000293;28;20069;-59
2023/08/09 02:48:42;;;;;;;20.55;3.33;;;;;;;;;;4991664;28;20053;-59
2023/08/09 02:51:16;;;;;;;17.33;3.22;;;;;;;;;;4996410;28;20066;-59
2023/08/09 02:53:59;;;;;;;23.52;3.58;;;;;;;;;;5015384;28;20621;-59
2023/08/09 02:56:27;;;;;;;25.25;2.63;;;;;;;;;;5013450;28;20063;-59
2023/08/09 02:59:01;;;;;;;20.85;2.88;;;;;;;;;;5011515;28;20898;-59
2023/08/09 03:01:29;;;;;;;;;;;;;;;;;;5015432;28;20069;-55
2023/08/09 03:03:56;;;;;;;19.35;3.00;;;;;;;;;;5018695;28;20782;-74
2023/08/09 03:06:30;;;;;;;19.70;3.58;;;;;;;;;;5013157;28;20112;-74
2023/08/09 03:08:57;;;;;;;21.90;3.10;;;;;;;;;;5012809;28;20046;-73
2023/08/09 03:11:31;;;;;;;23.50;3.45;;;;;;;;;;5014516;28;21945;-74
2023/08/09 03:13:58;;;;;;;18.92;3.05;;;;;;;;;;5012448;28;20127;-74
2023/08/09 03:16:25;;;;;;;25.23;3.50;;;;;;;;;;5016563;28;20057;-74
2023/08/09 03:19:00;;;;;;;16.92;2.95;;;;;;;;;;5014075;28;20056;-59
2023/08/09 03:21:47;;;;;;;23.33;3.00;;;;;;;;;;5011945;28;20054;-59
2023/08/09 03:24:41;;;;;;;17.45;3.03;;;;;;;;;;5018561;28;20057;-59
2023/08/09 03:27:35;;;;;;;25.08;3.58;;;;;;;;;;5013483;28;20316;-59
2023/08/09 03:30:22;;;;;;;24.27;3.03;;;;;;;;;;5014617;28;20190;-74
2023/08/09 03:33:15;;;;;;;23.02;3.38;;;;;;;;;;5014595;28;20057;-65
2023/08/09 03:36:04;;;;;;;25.92;3.55;;;;;;;;;;5009373;28;20056;-65
2023/08/09 03:38:57;;;;;;;21.15;2.85;;;;;;;;;;5010828;28;20072;-65
2023/08/09 03:41:51;;;;;;;25.00;3.30;;;;;;;;;;5017989;28;20050;-65
2023/08/09 03:44:45;;;;;;;31.77;3.70;;;;;;;;;;5014825;28;23006;-66
2023/08/09 03:47:32;;;;;;;33.20;3.47;;;;;;;;;;5013396;28;20123;-73
2023/08/09 03:50:26;;;;;;;26.85;3.47;;;;;;;;;;5014205;28;20829;-74
2023/08/09 03:53:19;;;;;;;31.33;3.45;;;;;;;;;;4995354;28;20254;-72
2023/08/09 03:56:13;;;;;;;27.33;3.88;;;;;;;;;;4993273;28;20093;-61
2023/08/09 03:59:07;;;;;;;26.23;3.47;;;;;;;;;;4992097;28;20128;-54
2023/08/09 04:02:02;;;;;;;27.45;4.53;;;;;;;;;;4999269;28;20046;-59
2023/08/09 04:04:49;;;;;;;31.35;4.38;;;;;;;;;;4996671;28;20148;-59
2023/08/09 04:07:42;;;;;;;27.98;4.03;;;;;;;;;;4997441;28;20077;-59
2023/08/09 04:10:30;;;;;;;31.98;4.00;;;;;;;;;;4998327;28;20452;-59
2023/08/09 04:13:24;;;;;;;26.42;3.63;;;;;;;;;;4998909;28;20046;-60
2023/08/09 04:16:12;;;;;;;35.55;4.03;;;;;;;;;;4996053;28;20522;-59
2023/08/09 04:19:06;;;;;;;23.52;3.15;;;;;;;;;;4991334;28;20061;-59
2023/08/09 04:21:53;;;;;;;31.33;4.05;;;;;;;;;;4995610;28;20529;-59
2023/08/09 04:24:48;;;;;;;44.33;4.47;;;;;;;;;;4992435;28;20116;-72
2023/08/09 04:27:35;;;;;;;37.08;4.22;;;;;;;;;;4992812;28;20119;-53
2023/08/09 04:30:29;;;;;;;35.05;3.95;;;;;;;;;;4993496;28;20062;-74
2023/08/09 04:33:17;;;;;;;37.45;3.78;;;;;;;;;;4993118;28;20523;-74
2023/08/09 04:36:10;;;;;;;25.73;3.55;;;;;;;;;;4987113;28;20929;-74
2023/08/09 04:39:08;;;;;;;33.13;3.83;;;;;;;;;;4994578;28;20068;-73
2023/08/09 04:41:57;;;;;;;22.85;3.30;;;;;;;;;;4992694;28;20109;-73
2023/08/09 04:44:52;;;;;;;20.33;3.42;;;;;;;;;;4993265;28;20054;-59
2023/08/09 04:47:39;;;;;;;23.70;3.92;;;;;;;;;;4992231;28;20280;-59
2023/08/09 04:50:34;;;;;;;22.55;2.90;;;;;;;;;;4991929;28;21053;-59
2023/08/09 04:53:27;;;;;;;25.17;3.13;;;;;;;;;;4997161;28;20535;-72
2023/08/09 04:56:21;;;;;;;21.20;3.00;;;;;;;;;;4993212;28;20061;-58
2023/08/09 04:59:15;;;;;;;28.77;3.95;;;;;;;;;;4991998;28;20057;-59
2023/08/09 05:02:05;;;;;;;26.20;3.22;;;;;;;;;;4995525;28;20046;-59
2023/08/09 05:04:55;;;;;;;33.55;3.92;;;;;;;;;;4993411;28;20431;-59
2023/08/09 05:07:50;;;;;;;31.55;4.53;;;;;;;;;;4998984;28;20050;-59
2023/08/09 05:10:43;;;;;;;26.30;3.63;;;;;;;;;;4991670;28;20420;-59
2023/08/09 05:13:38;;;;;;;25.73;3.35;;;;;;;;;;4998300;28;20050;-56
2023/08/09 05:16:32;;;;;;;22.60;4.00;;;;;;;;;;4995477;28;20085;-55
2023/08/09 05:19:19;;;;;;;24.20;3.50;;;;;;;;;;4994688;28;20467;-55
2023/08/09 05:22:13;;;;;;;36.92;4.60;;;;;;;;;;4995995;28;20061;-53
2023/08/09 05:25:01;;;;;;;29.25;3.80;;;;;;;;;;4994552;28;20807;-51
2023/08/09 05:27:55;;;;;;;27.75;3.72;;;;;;;;;;4993466;28;20061;-50
2023/08/09 05:30:49;;;;;;;24.23;2.88;;;;;;;;;;4993385;28;20054;-50
2023/08/09 05:33:43;;;;;;;29.38;3.33;;;;;;;;;;4993487;28;20049;-49
2023/08/09 05:36:30;;;;;;;27.55;3.83;;;;;;;;;;4987634;28;20046;-51
2023/08/09 05:39:25;;;;;;;25.00;4.13;;;;;;;;;;4998081;28;20061;-51
2023/08/09 05:42:14;;;;;;;27.65;3.83;;;;;;;;;;4995563;28;20046;-59
2023/08/09 05:45:08;;;;;;;33.15;4.10;;;;;;;;;;4996059;28;20057;-59
2023/08/09 05:47:55;;;;;;;24.25;3.13;;;;;;;;;;4990222;28;20080;-59
2023/08/09 05:50:49;;;;;;;27.33;3.80;;;;;;;;;;4996131;28;20065;-73
2023/08/09 05:53:42;;;;;;;23.17;3.20;;;;;;;;;;4996811;28;21494;-54
2023/08/09 05:56:37;;;;;;;30.40;3.40;;;;;;;;;;4989681;28;20559;-52
2023/08/09 05:59:24;;;;;;;32.67;4.05;;;;;;;;;;4991354;28;20081;-49
2023/08/09 06:02:18;;;;;;;19.35;3.10;;;;;;;;;;4995858;28;20058;-50
2023/08/09 06:05:05;;;;;;;26.15;3.28;;;;;;;;;;4993760;28;20069;-50
2023/08/09 06:07:59;;;;;;;25.73;3.33;;;;;;;;;;4994507;28;20045;-51
2023/08/09 06:10:46;;;;;;;21.50;3.22;;;;;;;;;;4999122;28;20131;-59
2023/08/09 06:13:40;;;;;;;22.52;3.00;;;;;;;;;;4999964;28;20169;-59
2023/08/09 06:16:28;;;;;;;15.45;2.50;;;;;;;;;;4999712;28;20134;-59
2023/08/09 06:19:21;;;;;;;21.25;3.00;;;;;;;;;;4998335;28;20566;-56
2023/08/09 06:22:16;;;;;;;23.55;3.58;;;;;;;;;;4999572;28;20054;-55
2023/08/09 06:25:10;;;;;;;34.40;3.97;;;;;;;;;;4994409;28;20695;-52
2023/08/09 06:27:57;;;;;;;33.67;3.90;;;;;;;;;;4987491;28;21173;-55
2023/08/09 06:30:51;;;;;;;23.13;3.58;;;;;;;;;;4991064;28;20517;-54
2023/08/09 06:33:42;;;;;;;20.80;3.58;;;;;;;;;;4996770;28;20061;-56
2023/08/09 06:36:32;;;;;;;18.65;3.28;;;;;;;;;;4992512;28;20116;-52
2023/08/09 06:39:19;;;;;;;34.65;3.83;;;;;;;;;;4991327;28;20526;-49
2023/08/09 06:42:13;;;;;;;26.15;3.28;;;;;;;;;;4990726;28;20120;-53
2023/08/09 06:45:01;;;;;;;26.17;3.22;;;;;;;;;;4997569;28;20133;-48
2023/08/09 06:47:56;;;;;;;22.90;3.60;;;;;;;;;;4999902;28;21196;-50
2023/08/09 06:50:45;;;;;;;27.42;2.80;;;;;;;;;;4995421;28;20056;-72
2023/08/09 06:53:45;;;;;;;17.08;2.72;;;;;;;;;;4997383;28;22276;-71
2023/08/09 06:56:39;;;;;;;13.20;1.90;;;;;;;;;;4985136;28;20061;-72
2023/08/09 06:59:27;;;;;;;15.73;2.63;;;;;;;;;;4990461;28;20538;-72
2023/08/09 07:02:21;;;;;;;24.42;2.72;;;;;;;;;;4996609;28;20288;-72
2023/08/09 07:05:15;;;;;;;16.92;2.72;;;;;;;;;;4995327;28;20107;-62
2023/08/09 07:08:03;;;;;;;27.98;3.47;;;;;;;;;;4996404;28;20085;-63
2023/08/09 07:10:56;;;;;;;21.35;3.03;;;;;;;;;;4997431;28;20559;-64
2023/08/09 07:13:51;;;;;;;17.23;2.55;;;;;;;;;;4998926;28;20057;-64
2023/08/09 07:16:44;;;;;;;23.65;3.30;;;;;;;;;;4997038;28;20563;-59
2023/08/09 07:19:32;;;;;;;23.58;3.28;;;;;;;;;;4995085;28;20475;-51
2023/08/09 07:22:26;;;;;;;21.77;3.03;;;;;;;;;;4995600;28;20074;-54
2023/08/09 07:25:14;;;;;;;15.73;2.95;;;;;;;;;;4992007;28;20140;-55
2023/08/09 07:28:08;;;;;;;16.90;2.30;;;;;;;;;;4989876;28;20218;-55
2023/08/09 07:30:55;;;;;;;16.55;2.35;;;;;;;;;;4996498;28;20050;-54
2023/08/09 07:33:49;;;;;;;16.17;2.72;;;;;;;;;;4994676;28;20073;-48
2023/08/09 07:36:36;;;;;;;17.65;2.78;;;;;;;;;;4995739;28;20057;-48
2023/08/09 07:39:30;;;;;;;17.83;3.08;;;;;;;;;;4996951;28;20161;-52
2023/08/09 07:42:17;;;;;;;17.45;2.47;;;;;;;;;;4991511;28;20050;-52
2023/08/09 07:45:11;;;;;;;24.23;2.72;;;;;;;;;;4994241;28;20112;-71
2023/08/09 07:47:58;;;;;;;10.50;1.80;;;;;;;;;;4991460;28;20042;-52
2023/08/09 07:50:52;;;;;;;10.02;2.00;;;;;;;;;;4996855;28;20152;-48
2023/08/09 07:53:46;;;;;;;10.05;2.00;;;;;;;;;;4996478;28;20601;-53
2023/08/09 07:56:41;;;;;;;15.88;2.15;;;;;;;;;;4991749;28;20054;-53
2023/08/09 07:59:28;;;;;;;17.35;2.33;;;;;;;;;;4997328;28;20060;-51
2023/08/09 08:02:29;;;;;;;16.85;2.50;;;;;;;;;;4993991;28;20053;-63
2023/08/09 08:05:17;;;;;;;12.95;2.20;;;;;;;;;;4991503;28;20153;-62
2023/08/09 08:08:14;;;;;;;16.80;2.88;;;;;;;;;;4993725;28;20062;-62
2023/08/09 08:11:02;;;;;;;15.55;2.88;;;;;;;;;;4996449;28;20050;-62
2023/08/09 08:13:56;;;;;;;10.82;1.75;;;;;;;;;;4995615;28;20136;-62
2023/08/09 08:16:44;;;;;;;9.88;2.10;;;;;;;;;;4989193;28;20056;-54
2023/08/09 08:19:38;;;;;;;15.18;1.77;;;;;;;;;;4994503;28;20487;-52
2023/08/09 08:22:25;;;;;;;13.77;1.63;;;;;;;;;;4991905;28;20141;-56
2023/08/09 08:25:19;;;;;;;10.90;1.67;;;;;;;;;;4989688;28;20057;-53
2023/08/09 08:28:06;;;;;;;5.55;1.00;;;;;;;;;;4996456;28;20058;-54
2023/08/09 08:31:22;;;;;;;9.95;1.05;;;;;;;;;;4986511;28;20161;-70
2023/08/09 08:34:15;;;;;;;9.52;1.25;;;;;;;;;;4994214;28;20089;-70
2023/08/09 08:37:09;;;;;;;3.60;0.73;;;;;;;;;;4992757;28;20045;-71
2023/08/09 08:39:56;;;;;;;4.78;0.95;;;;;;;;;;4993011;28;20085;-71
2023/08/09 08:42:51;;;;;;;4.72;0.95;;;;;;;;;;4991792;28;20085;-59
2023/08/09 08:45:39;;;;;;;10.00;0.93;;;;;;;;;;4996772;28;20097;-50
2023/08/09 08:48:36;;;;;;;4.32;1.05;;;;;;;;;;4994368;28;20470;-52
2023/08/09 08:51:24;;;;;;;7.90;0.88;;;;;;;;;;4992239;28;20175;-54
2023/08/09 08:54:24;;;;;;;5.53;1.02;;;;;;;;;;4996679;28;20104;-54
2023/08/09 08:57:18;;;;;;;1.50;0.68;;;;;;;;;;4992984;28;20054;-55
2023/08/09 09:00:16;;;;;;;3.13;0.70;;;;;;;;;;4997378;28;20050;-54
2023/08/09 09:03:09;;;;;;;9.55;1.02;;;;;;;;;;4991554;28;20582;-51
2023/08/09 09:05:56;;;;;;;4.88;1.52;;;;;;;;;;4990542;28;20133;-51
2023/08/09 09:09:02;;;;;;;7.57;1.00;;;;;;;;;;4993146;28;20050;-50
2023/08/09 09:11:52;;;;;;;7.43;0.90;;;;;;;;;;4989553;28;20475;-60
2023/08/09 09:14:46;;;;;;;4.93;0.68;;;;;;;;;;4990415;28;20642;-55
2023/08/09 09:17:38;;;;;;;5.93;0.82;;;;;;;;;;4999913;28;20056;-56
2023/08/09 09:20:33;;;;;;;8.85;1.40;;;;;;;;;;4995724;28;20105;-56
2023/08/09 09:23:27;;;;;;;5.80;0.95;;;;;;;;;;4994352;28;20050;-54
2023/08/09 09:26:20;;;;;;;5.25;1.02;;;;;;;;;;4988630;28;20125;-54
2023/08/09 09:29:08;;;;;;;6.65;1.10;;;;;;;;;;4991118;28;20554;-72
2023/08/09 09:32:07;;;;;;;7.45;1.02;;;;;;;;;;4985955;28;20125;-73
2023/08/09 09:34:53;;;;;;;7.32;0.73;;;;;;;;;;4992270;28;20442;-73
2023/08/09 09:37:47;;;;;;;4.63;0.60;;;;;;;;;;4992019;28;20539;-56
2023/08/09 09:40:35;;;;;;;6.97;0.83;;;;;;;;;;4986778;28;20066;-60
2023/08/09 09:43:38;;;;;;;2.08;0.35;;;;;;;;;;4983699;28;20059;-73
2023/08/09 09:46:25;;;;;;;5.38;0.90;;;;;;;;;;4993204;28;20597;-72
2023/08/09 09:49:19;;;;;;;5.10;0.60;;;;;;;;;;4990908;28;20049;-72
2023/08/09 09:52:19;;;;;;;11.23;1.42;;;;;;;;;;4991957;28;20100;-72
2023/08/09 09:55:25;;;;;;;7.88;0.90;;;;;;;;;;4989488;28;20054;-71
2023/08/09 09:58:08;;;;;;;4.38;0.90;;;;;;;;;;4987415;28;20054;-52
2023/08/09 10:01:02;;;;;;;3.97;1.08;;;;;;;;;;4989721;28;20498;-52
2023/08/09 10:03:53;;;;;;;8.63;0.83;;;;;;;;;;4992449;28;20578;-55
2023/08/09 10:06:48;;;;;;;5.93;0.88;;;;;;;;;;4995172;28;20245;-56
2023/08/09 10:09:35;;;;;;;6.70;0.70;;;;;;;;;;4992636;28;20066;-72
2023/08/09 10:12:33;;;;;;;6.53;1.15;;;;;;;;;;4995041;28;20136;-72
2023/08/09 10:15:23;;;;;;;2.15;0.60;;;;;;;;;;4992346;28;20082;-73
2023/08/09 10:18:26;;;;;;;4.70;0.50;;;;;;;;;;4993553;28;21579;-72
2023/08/09 10:21:15;;;;;;;3.83;0.85;;;;;;;;;;4995668;28;20612;-73
2023/08/09 10:24:12;;;;;;;7.05;1.00;;;;;;;;;;4993636;28;20527;-73
2023/08/09 10:27:01;;;;;;;4.82;0.80;;;;;;;;;;4993155;28;20601;-59
2023/08/09 10:29:57;;;;;;;4.55;0.55;;;;;;;;;;4997593;28;20061;-59
2023/08/09 10:32:55;;;;;;;4.53;1.17;;;;;;;;;;4997150;28;20065;-59
2023/08/09 10:35:53;;;;;;;7.13;1.17;;;;;;;;;;5001691;28;20061;-61
2023/08/09 10:38:40;;;;;;;4.57;0.77;;;;;;;;;;4993218;28;20061;-63
2023/08/09 10:41:34;;;;;;;7.50;0.65;;;;;;;;;;4991379;28;20844;-63
2023/08/09 10:44:36;;;;;;;6.93;0.93;;;;;;;;;;4990324;28;20204;-64
2023/08/09 10:47:31;;;;;;;7.70;0.90;;;;;;;;;;4991400;28;23007;-64
2023/08/09 10:50:18;;;;;;;7.05;0.73;;;;;;;;;;4993703;28;20065;-63
2023/08/09 10:53:27;;;;;;;8.50;0.85;;;;;;;;;;4997808;28;20062;-59
2023/08/09 10:56:33;;;;;;;4.88;0.77;;;;;;;;;;4992009;28;20498;-58
2023/08/09 10:59:27;;;;;;;6.15;0.80;;;;;;;;;;4992632;28;20049;-59
2023/08/09 11:02:16;;;;;;;2.75;0.68;;;;;;;;;;4994411;28;20514;-60
2023/08/09 11:05:11;;;;;;;3.28;0.57;;;;;;;;;;4994528;28;20143;-70
2023/08/09 11:08:00;;;;;;;6.10;0.90;;;;;;;;;;4990812;28;20120;-60
2023/08/09 11:10:54;;;;;;;5.28;0.68;;;;;;;;;;4995122;28;20140;-59
2023/08/09 11:13:42;;;;;;;1.77;0.57;;;;;;;;;;4992331;28;20107;-59
2023/08/09 11:16:36;;;;;;;4.40;0.65;;;;;;;;;;4988700;28;20054;-59
2023/08/09 11:19:28;;;;;;;3.67;0.52;;;;;;;;;;4990329;28;20050;-60
2023/08/09 11:22:23;;;;;;;7.00;0.65;;;;;;;;;;4992541;28;20058;-61
2023/08/09 11:25:10;;;;;;;4.22;0.65;;;;;;;;;;4994996;28;20077;-61
2023/08/09 11:28:05;;;;;;;8.70;1.00;;;;;;;;;;4997210;28;20493;-61
2023/08/09 11:30:53;;;;;;;4.20;0.52;;;;;;;;;;4993413;28;20318;-61
2023/08/09 11:33:47;;;;;;;5.20;0.70;;;;;;;;;;4994782;28;20054;-57
2023/08/09 11:36:34;;;;;;;4.47;0.98;;;;;;;;;;4990901;28;20054;-51
2023/08/09 11:39:28;;;;;;;3.10;0.50;;;;;;;;;;4995100;28;20066;-53
2023/08/09 11:42:15;;;;;;;3.70;0.77;;;;;;;;;;4995514;28;20066;-51
2023/08/09 11:45:09;;;;;;;2.05;0.70;;;;;;;;;;4992037;28;20442;-52
2023/08/09 11:47:56;;;;;;;3.17;0.93;;;;;;;;;;4998573;28;20054;-51
2023/08/09 11:51:05;;;;;;;7.38;0.90;;;;;;;;;;4994125;28;20054;-64
2023/08/09 11:54:00;;;;;;;5.78;0.70;;;;;;;;;;4994781;28;20108;-64
2023/08/09 11:56:54;;;;;;;2.03;0.52;;;;;;;;;;4992318;28;20542;-62
2023/08/09 11:59:41;;;;;;;7.00;1.00;;;;;;;;;;4997346;28;20064;-64
2023/08/09 12:02:43;;;;;;;6.80;0.70;;;;;;;;;;4991964;28;20526;-60
2023/08/09 12:05:30;;;;;;;2.17;0.60;;;;;;;;;;4988333;28;20057;-64
2023/08/09 12:08:34;;;;;;;6.18;0.90;;;;;;;;;;4995307;28;20499;-64
2023/08/09 12:11:28;;;;;;;7.35;0.95;;;;;;;;;;4992455;28;20539;-65
2023/08/09 12:14:22;;;;;;;2.08;0.63;;;;;;;;;;4990276;28;20062;-64
2023/08/09 12:17:19;;;;;;;4.05;0.60;;;;;;;;;;4995151;28;20046;-64
2023/08/09 12:20:13;;;;;;;6.22;0.88;;;;;;;;;;4993111;28;20140;-55
2023/08/09 12:23:00;;;;;;;7.55;0.82;;;;;;;;;;4990865;28;20046;-56
2023/08/09 12:25:54;;;;;;;4.90;0.90;;;;;;;;;;4991981;28;20061;-52
2023/08/09 12:28:41;;;;;;;6.22;1.05;;;;;;;;;;4988527;28;20491;-59
2023/08/09 12:31:36;;;;;;;1.85;0.60;;;;;;;;;;4996104;28;20058;-64
2023/08/09 12:34:29;;;;;;;7.45;0.80;;;;;;;;;;4996112;28;20129;-65
2023/08/09 12:37:29;;;;;;;5.85;0.85;;;;;;;;;;4987536;28;21183;-65
2023/08/09 12:40:17;;;;;;;4.07;1.27;;;;;;;;;;4991718;28;20650;-64
2023/08/09 12:43:11;;;;;;;2.75;0.73;;;;;;;;;;4996438;28;20387;-64
2023/08/09 12:45:59;;;;;;;5.75;0.80;;;;;;;;;;4996718;28;20519;-65
2023/08/09 12:48:52;;;;;;;6.00;0.98;;;;;;;;;;4992641;28;20057;-64
2023/08/09 12:51:39;;;;;;;5.28;1.10;;;;;;;;;;4994482;28;20112;-64
2023/08/09 12:54:39;;;;;;;5.60;1.35;;;;;;;;;;4993549;28;20621;-64
2023/08/09 12:57:27;;;;;;;7.38;1.10;;;;;;;;;;4984317;28;20045;-66
2023/08/09 13:00:21;;;;;;;8.90;1.23;;;;;;;;;;4992531;28;20077;-64
2023/08/09 13:03:15;;;;;;;6.50;1.38;;;;;;;;;;4991223;28;20054;-64
2023/08/09 13:06:09;;;;;;;3.30;0.85;;;;;;;;;;4992243;28;20133;-64
2023/08/09 13:08:58;;;;;;;3.70;1.05;;;;;;;;;;4991724;28;20528;-64
2023/08/09 13:11:50;;;;;;;4.22;0.82;;;;;;;;;;4992067;28;21265;-64
2023/08/09 13:14:44;;;;;;;6.18;0.75;;;;;;;;;;4988237;28;20069;-64
2023/08/09 13:17:38;;;;;;;5.20;0.90;;;;;;;;;;4994215;28;20827;-64
2023/08/09 13:20:26;;;;;;;9.20;1.00;;;;;;;;;;4990750;28;20104;-64
2023/08/09 13:23:19;;;;;;;3.13;1.13;;;;;;;;;;4990132;28;20099;-64
2023/08/09 13:26:06;;;;;;;5.75;1.02;;;;;;;;;;4992843;28;20117;-52
2023/08/09 13:29:00;;;;;;;6.07;0.95;;;;;;;;;;4991681;28;20077;-64
2023/08/09 13:31:47;;;;;;;5.72;1.10;;;;;;;;;;4989492;28;20043;-64
2023/08/09 13:34:41;;;;;;;3.85;1.05;;;;;;;;;;4991421;28;20478;-63
2023/08/09 13:37:28;;;;;;;4.50;0.90;;;;;;;;;;4991130;28;20057;-63
2023/08/09 13:40:22;;;;;;;7.53;0.75;;;;;;;;;;4990983;28;20058;-62
2023/08/09 13:43:11;;;;;;;3.65;1.27;;;;;;;;;;4989704;28;20065;-63
2023/08/09 13:46:03;;;;;;;6.10;1.20;;;;;;;;;;4990184;28;20506;-71
2023/08/09 13:48:50;;;;;;;3.65;1.10;;;;;;;;;;4993568;28;20046;-70
2023/08/09 13:51:44;;;;;;;8.38;1.20;;;;;;;;;;4991484;28;20062;-69
2023/08/09 13:54:38;;;;;;;4.95;0.80;;;;;;;;;;4994700;28;20413;-60
2023/08/09 13:57:32;;;;;;;3.75;0.77;;;;;;;;;;4988234;28;20567;-52
2023/08/09 14:00:19;;;;;;;6.45;1.13;;;;;;;;;;4991546;28;20136;-52
2023/08/09 14:03:17;;;;;;;3.53;0.82;;;;;;;;;;4989604;28;20050;-56
2023/08/09 14:06:03;;;;;;;2.95;0.60;;;;;;;;;;4981974;28;20648;-55
2023/08/09 14:08:57;;;;;;;4.15;0.80;;;;;;;;;;4992713;28;20062;-53
2023/08/09 14:11:44;;;;;;;3.30;0.70;;;;;;;;;;4988020;28;20050;-52
2023/08/09 14:14:38;;;;;;;1.73;0.63;;;;;;;;;;4992508;28;20082;-51
2023/08/09 14:17:32;;;;;;;4.78;0.82;;;;;;;;;;4989773;28;20116;-55
2023/08/09 14:20:19;;;;;;;4.13;0.70;;;;;;;;;;4991006;28;20148;-53
2023/08/09 14:23:13;;;;;;;2.42;0.60;;;;;;;;;;4988457;28;20051;-73
2023/08/09 14:26:01;;;;;;;4.50;0.73;;;;;;;;;;4985585;28;20061;-55
2023/08/09 14:28:54;;;;;;;3.20;0.63;;;;;;;;;;4990269;28;20056;-54
2023/08/09 14:31:42;;;;;;;9.50;1.30;;;;;;;;;;4995824;28;20057;-52
2023/08/09 14:34:36;;;;;;;3.10;0.82;;;;;;;;;;4994216;28;20113;-56
2023/08/09 14:37:30;;;;;;;5.28;0.73;;;;;;;;;;4996529;28;20065;-54
2023/08/09 14:40:31;;;;;;;3.90;0.70;;;;;;;;;;4993629;28;20121;-62
2023/08/09 14:43:25;;;;;;;2.25;0.63;;;;;;;;;;4978796;28;20113;-73
2023/08/09 14:46:12;;;;;;;3.90;1.00;;;;;;;;;;4988469;28;20515;-73
2023/08/09 14:49:06;;;;;;;6.25;1.50;;;;;;;;;;4993132;28;20685;-74
2023/08/09 14:51:54;;;;;;;7.88;1.50;;;;;;;;;;4986934;28;20081;-57
2023/08/09 14:54:54;;;;;;;6.05;1.20;;;;;;;;;;4996099;28;20535;-71
2023/08/09 14:57:48;;;;;;;2.80;1.20;;;;;;;;;;4992120;28;20050;-72
2023/08/09 15:00:42;;;;;;;6.30;1.55;;;;;;;;;;4992019;28;20409;-70
2023/08/09 15:03:29;;;;;;;8.35;1.63;;;;;;;;;;4999844;28;20498;-70
2023/08/09 15:06:23;;;;;;;4.03;1.38;;;;;;;;;;4990280;28;20058;-70
2023/08/09 15:09:10;;;;;;;6.55;1.50;;;;;;;;;;4992662;28;20062;-53
2023/08/09 15:12:05;;;;;;;4.03;1.55;;;;;;;;;;4982799;28;20054;-52
2023/08/09 15:14:58;;;;;;;6.18;1.45;;;;;;;;;;4985183;28;20649;-53
2023/08/09 15:17:45;;;;;;;1.88;1.15;;;;;;;;;;4990612;28;20050;-53
2023/08/09 15:20:39;;;;;;;3.22;1.15;;;;;;;;;;4995916;28;20060;-72
2023/08/09 15:23:33;;;;;;;3.38;1.27;;;;;;;;;;4991849;28;20587;-60
2023/08/09 15:26:20;;;;;;;3.60;1.00;;;;;;;;;;4994268;28;20384;-59
2023/08/09 15:29:14;;;;;;;8.10;1.45;;;;;;;;;;4990533;28;20057;-60
2023/08/09 15:32:01;;;;;;;7.57;1.20;;;;;;;;;;4994594;28;20058;-60
2023/08/09 15:34:55;;;;;;;3.85;1.10;;;;;;;;;;4992396;28;20050;-60
2023/08/09 15:37:42;;;;;;;3.67;0.95;;;;;;;;;;4997804;28;20522;-49
2023/08/09 15:40:36;;;;;;;4.55;1.13;;;;;;;;;;4994823;28;20065;-48
2023/08/09 15:43:23;;;;;;;5.68;0.98;;;;;;;;;;4987811;28;20062;-48
2023/08/09 15:46:17;;;;;;;5.68;1.27;;;;;;;;;;4995283;28;20089;-50
2023/08/09 15:49:08;;;;;;;5.75;1.10;;;;;;;;;;4988517;28;20479;-49
2023/08/09 15:51:59;;;;;;;3.65;1.02;;;;;;;;;;4989796;28;21400;-61
2023/08/09 15:54:54;;;;;;;2.83;1.17;;;;;;;;;;4996428;28;20061;-61
2023/08/09 15:57:50;;;;;;;2.65;1.10;;;;;;;;;;4990976;28;20058;-61
2023/08/09 16:00:37;;;;;;;4.18;1.20;;;;;;;;;;4995111;28;20506;-61
2023/08/09 16:03:31;;;;;;;4.35;0.95;;;;;;;;;;4993207;28;20089;-61
2023/08/09 16:06:18;;;;;;;4.63;1.10;;;;;;;;;;4993005;28;20439;-48
2023/08/09 16:09:14;;;;;;;1.05;0.85;;;;;;;;;;4992298;28;20078;-53
2023/08/09 16:12:00;;;;;;;1.92;1.00;;;;;;;;;;4986637;28;20547;-50
2023/08/09 16:14:53;;;;;;;4.15;0.93;;;;;;;;;;4990125;28;20053;-52
2023/08/09 16:17:50;;;;;;;2.38;1.00;;;;;;;;;;4991289;28;20050;-57
2023/08/09 16:20:38;;;;;;;4.20;1.10;;;;;;;;;;4991161;28;20068;-56
2023/08/09 16:23:32;;;;;;;4.53;0.93;;;;;;;;;;4986620;28;20105;-54
2023/08/09 16:26:19;;;;;;;6.55;1.23;;;;;;;;;;4994322;28;20045;-54
2023/08/09 16:29:13;;;;;;;2.22;1.20;;;;;;;;;;4989742;28;20129;-53
2023/08/09 16:32:00;;;;;;;8.02;1.60;;;;;;;;;;4992650;28;20806;-56
2023/08/09 16:34:54;;;;;;;5.68;1.38;;;;;;;;;;4993644;28;20045;-57
2023/08/09 16:37:42;;;;;;;6.40;1.42;;;;;;;;;;4989104;28;20081;-57
2023/08/09 16:40:36;;;;;;;5.43;1.45;;;;;;;;;;4991683;28;20062;-58